createdAt,value
2024-02-13T04:41:07.239Z,1.92
2024-02-13T04:44:10.630Z,2.28
2024-02-13T04:47:13.275Z,2.75
2024-02-13T04:50:18.756Z,2.30
2024-02-13T04:53:23.389Z,1.73
2024-02-13T04:56:27.553Z,2.25
2024-02-13T04:59:38.825Z,2.25
2024-02-13T05:02:47.619Z,2.28
2024-02-13T05:06:09.181Z,1.87
2024-02-13T05:09:12.910Z,2.03
2024-02-13T05:12:16.127Z,2.33
2024-02-13T05:15:22.001Z,2.22
2024-02-13T05:18:24.798Z,2.37
2024-02-13T05:21:28.106Z,2.50
2024-02-13T05:27:33.477Z,2.28
2024-02-13T05:30:37.505Z,2.70
2024-02-13T05:33:40.791Z,3.15
2024-02-13T05:39:51.308Z,2.80
2024-02-13T05:42:55.953Z,2.83
2024-02-13T05:45:58.895Z,2.92
2024-02-13T05:49:01.967Z,2.95
2024-02-13T05:52:06.195Z,2.97
2024-02-13T05:55:09.617Z,2.35
2024-02-13T05:58:12.697Z,2.90
2024-02-13T06:01:15.361Z,3.17
2024-02-13T06:07:21.078Z,2.75
2024-02-13T06:10:25.916Z,2.62
2024-02-13T06:13:28.933Z,2.70
2024-02-13T06:16:32.301Z,2.80
2024-02-13T06:19:34.992Z,2.90
2024-02-13T06:22:38.807Z,2.97
2024-02-13T06:25:41.549Z,2.37
2024-02-13T06:31:47.047Z,2.58
2024-02-13T06:34:50.144Z,2.40
2024-02-13T06:37:54.321Z,2.92
2024-02-13T06:40:59.061Z,2.58
2024-02-13T06:44:04.305Z,2.92
2024-02-13T06:47:08.135Z,2.90
2024-02-13T06:50:14.319Z,3.10
2024-02-13T06:53:17.644Z,2.50
2024-02-13T06:56:20.603Z,2.65
2024-02-13T06:59:23.716Z,2.83
2024-02-13T07:02:26.642Z,2.90
2024-02-13T07:05:31.143Z,2.60
2024-02-13T07:08:34.608Z,3.35
2024-02-13T07:11:37.721Z,2.92
2024-02-13T07:14:40.447Z,3.28
2024-02-13T07:21:07.459Z,3.00
2024-02-13T07:24:11.848Z,2.60
2024-02-13T07:27:14.480Z,2.75
2024-02-13T07:30:17.644Z,2.30
2024-02-13T07:33:20.488Z,3.17
2024-02-13T07:36:23.599Z,2.78
2024-02-13T07:39:27.982Z,3.40
2024-02-13T07:42:30.939Z,3.22
2024-02-13T07:45:33.687Z,3.00
2024-02-13T07:51:39.517Z,2.83
2024-02-13T07:57:51.106Z,2.97
2024-02-13T08:00:54.047Z,3.37
2024-02-13T08:04:01.442Z,3.03
2024-02-13T08:07:04.867Z,3.55
2024-02-13T08:10:11.291Z,2.70
2024-02-13T08:13:13.903Z,3.78
2024-02-13T08:16:16.811Z,2.55
2024-02-13T08:19:19.683Z,3.45
2024-02-13T08:22:22.686Z,3.05
2024-02-13T08:25:26.552Z,3.47
2024-02-13T08:28:31.515Z,2.65
2024-02-13T08:31:35.167Z,3.42
2024-02-13T08:34:39.694Z,3.47
2024-02-13T08:37:42.618Z,2.87
2024-02-13T08:40:45.577Z,2.95
2024-02-13T08:43:48.832Z,3.58
2024-02-13T08:46:51.849Z,2.87
2024-02-13T08:49:55.204Z,2.83
2024-02-13T08:52:58.894Z,3.03
2024-02-13T08:56:01.639Z,3.20
2024-02-13T09:02:10.129Z,2.60
2024-02-13T09:05:13.932Z,2.53
2024-02-13T09:08:16.833Z,3.00
2024-02-13T09:11:23.115Z,2.67
2024-02-13T09:14:25.737Z,2.78
2024-02-13T09:17:28.657Z,3.05
2024-02-13T09:20:31.739Z,2.75
2024-02-13T09:23:35.489Z,3.00
2024-02-13T09:26:38.383Z,2.62
2024-02-13T09:29:42.247Z,2.37
2024-02-13T09:32:47.970Z,2.30
2024-02-13T09:35:51.725Z,2.20
2024-02-13T09:38:55.078Z,2.92
2024-02-13T09:41:59.387Z,2.83
2024-02-13T09:45:04.159Z,3.17
2024-02-13T09:48:22.645Z,2.62
2024-02-13T09:51:26.426Z,3.42
2024-02-13T09:54:32.236Z,3.00
2024-02-13T09:57:35.067Z,3.03
2024-02-13T10:03:41.087Z,3.63
2024-02-13T10:06:44.035Z,2.70
2024-02-13T10:09:50.511Z,2.92
2024-02-13T10:12:55.313Z,3.12
2024-02-13T10:15:58.267Z,2.80
2024-02-13T10:19:04.651Z,2.65
2024-02-13T10:22:08.706Z,2.40
2024-02-13T10:25:12.750Z,1.90
2024-02-13T10:28:18.151Z,2.30
2024-02-13T10:31:27.485Z,2.40
2024-02-13T10:34:30.506Z,2.78
2024-02-13T10:37:33.416Z,2.65
2024-02-13T10:43:43.812Z,2.12
2024-02-13T10:46:50.346Z,2.00
2024-02-13T10:50:00.273Z,1.85
2024-02-13T10:53:04.852Z,1.73
2024-02-13T10:56:09.622Z,2.05
2024-02-13T10:59:12.974Z,2.28
2024-02-13T11:05:20.507Z,2.22
2024-02-13T11:08:24.286Z,2.30
2024-02-13T11:11:29.265Z,2.00
2024-02-13T11:14:32.129Z,2.10
2024-02-13T11:20:51.614Z,1.83
2024-02-13T11:24:01.642Z,2.10
2024-02-13T11:27:17.003Z,1.65
2024-02-13T11:30:29.501Z,1.62
2024-02-13T11:33:32.293Z,1.40
2024-02-13T11:36:36.498Z,2.05
2024-02-13T11:39:42.449Z,1.90
2024-02-13T11:42:45.872Z,1.83
2024-02-13T11:45:48.952Z,1.60
2024-02-13T11:48:54.311Z,2.00
2024-02-13T11:51:57.601Z,1.90
2024-02-13T11:55:02.724Z,1.87
2024-02-13T11:58:07.442Z,2.03
2024-02-13T12:01:13.584Z,1.87
2024-02-13T12:04:21.019Z,2.08
2024-02-13T12:07:24.061Z,1.90
2024-02-13T12:10:27.306Z,2.20
2024-02-13T12:13:33.921Z,2.00
2024-02-13T12:16:38.325Z,1.90
2024-02-13T12:19:41.886Z,2.15
2024-02-13T12:22:47.717Z,3.72
2024-02-13T12:26:01.868Z,2.50
2024-02-13T12:29:16.144Z,2.08
2024-02-13T12:32:19.470Z,2.40
2024-02-13T12:35:33.437Z,2.50
2024-02-13T12:38:39.602Z,2.53
2024-02-13T12:41:42.662Z,2.75
2024-02-13T12:44:45.515Z,2.15
2024-02-13T12:47:49.226Z,2.67
2024-02-13T12:50:52.904Z,2.10
2024-02-13T12:53:55.938Z,1.92
2024-02-13T12:56:58.567Z,2.10
2024-02-13T13:03:05.799Z,2.28
2024-02-13T13:06:12.681Z,2.10
2024-02-13T13:09:27.504Z,2.17
2024-02-13T13:12:31.843Z,2.28
2024-02-13T13:15:35.414Z,1.60
2024-02-13T13:18:40.035Z,2.20
2024-02-13T13:21:43.457Z,1.50
2024-02-13T13:24:46.558Z,1.40
2024-02-13T13:27:50.294Z,1.40
2024-02-13T13:30:58.802Z,1.25
2024-02-13T13:34:07.194Z,1.40
2024-02-13T13:37:11.758Z,1.17
2024-02-13T13:40:18.071Z,1.17
2024-02-13T13:43:21.080Z,1.30
2024-02-13T13:46:25.499Z,1.37
2024-02-13T13:49:28.535Z,1.25
2024-02-13T13:52:31.283Z,1.25
2024-02-13T13:55:34.274Z,1.25
2024-02-13T13:58:37.169Z,1.45
2024-02-13T14:01:40.039Z,1.27
2024-02-13T14:07:45.256Z,1.35
2024-02-13T14:10:49.869Z,1.45
2024-02-13T14:13:53.675Z,1.10
2024-02-13T14:16:56.746Z,1.40
2024-02-13T14:19:59.421Z,1.20
2024-02-13T14:23:02.493Z,1.20
2024-02-13T14:26:05.419Z,1.48
2024-02-13T14:29:12.281Z,1.30
2024-02-13T14:32:15.899Z,1.30
2024-02-13T14:35:19.332Z,1.20
2024-02-13T14:38:22.523Z,1.25
2024-02-13T14:41:26.206Z,1.15
2024-02-13T14:44:28.986Z,1.10
2024-02-13T14:47:32.890Z,1.10
2024-02-13T14:50:36.159Z,1.00
2024-02-13T14:53:39.341Z,1.10
2024-02-13T14:56:43.033Z,1.40
2024-02-13T14:59:46.505Z,0.85
2024-02-13T15:02:49.366Z,0.90
2024-02-13T15:05:53.560Z,0.90
2024-02-13T15:08:56.845Z,0.95
2024-02-13T15:12:00.769Z,1.10
2024-02-13T15:15:05.888Z,1.67
2024-02-13T15:18:08.977Z,1.23
2024-02-13T15:21:13.637Z,1.37
2024-02-13T15:24:19.759Z,1.40
2024-02-13T15:27:22.630Z,1.23
2024-02-13T15:30:26.882Z,1.02
2024-02-13T15:33:30.283Z,1.42
2024-02-13T15:36:34.089Z,1.02
2024-02-13T15:39:55.815Z,1.17
2024-02-13T15:43:17.569Z,0.88
2024-02-13T15:46:55.568Z,1.27
2024-02-13T15:49:59.301Z,1.20
2024-02-13T15:53:20.736Z,1.20
2024-02-13T15:56:23.738Z,0.98
2024-02-13T15:59:27.487Z,0.70
2024-02-13T16:02:30.532Z,1.08
2024-02-13T16:05:35.465Z,1.60
2024-02-13T16:08:38.201Z,1.67
2024-02-13T16:14:43.871Z,1.98
2024-02-13T16:17:46.931Z,1.80
2024-02-13T16:23:11.783Z,1.30
2024-02-13T16:31:58.590Z,1.43
2024-02-13T16:35:02.552Z,2.08
2024-02-13T16:38:39.598Z,1.58
